createdAt,value
2018-10-11T00:00:50.544Z,28.03
2018-10-11T00:03:18.604Z,28.97
2018-10-11T00:05:46.781Z,27.80
2018-10-11T00:08:18.093Z,28.80
2018-10-11T00:10:49.835Z,28.40
2018-10-11T00:13:17.898Z,29.23
2018-10-11T00:15:46.113Z,29.63
2018-10-11T00:18:14.163Z,29.20
2018-10-11T00:20:42.205Z,29.20
2018-10-11T00:23:10.297Z,29.03
2018-10-11T00:25:39.258Z,29.00
2018-10-11T00:28:08.276Z,28.77
2018-10-11T00:30:36.357Z,29.50
2018-10-11T00:33:04.445Z,28.77
2018-10-11T00:35:33.380Z,28.50
2018-10-11T00:38:01.449Z,29.77
2018-10-11T00:40:31.104Z,29.17
2018-10-11T00:43:00.264Z,28.67
2018-10-11T00:45:28.323Z,29.07
2018-10-11T00:47:56.479Z,30.30
2018-10-11T00:50:25.114Z,29.80
2018-10-11T00:52:53.209Z,29.87
2018-10-11T00:55:21.263Z,28.93
2018-10-11T00:57:49.326Z,30.00
2018-10-11T01:00:17.677Z,28.87
2018-10-11T01:02:46.975Z,29.73
2018-10-11T01:05:15.949Z,29.90
2018-10-11T01:07:43.990Z,28.53
2018-10-11T01:10:12.592Z,29.63
2018-10-11T01:12:42.189Z,29.27
2018-10-11T01:15:11.204Z,28.60
2018-10-11T01:17:39.242Z,30.00
2018-10-11T01:20:11.612Z,30.07
2018-10-11T01:22:39.875Z,30.90
2018-10-11T01:25:07.926Z,30.17
2018-10-11T01:27:35.990Z,31.03
2018-10-11T01:30:04.603Z,28.50
2018-10-11T01:32:41.026Z,28.77
2018-10-11T01:35:09.393Z,30.07
2018-10-11T01:37:37.497Z,28.53
2018-10-11T01:40:11.919Z,29.03
2018-10-11T01:42:39.974Z,29.30
2018-10-11T01:45:08.538Z,29.53
2018-10-11T01:47:36.594Z,28.20
2018-10-11T01:50:04.712Z,29.47
2018-10-11T01:52:34.517Z,28.50
2018-10-11T01:55:02.542Z,29.43
2018-10-11T01:57:33.405Z,28.53
2018-10-11T02:00:02.073Z,29.57
2018-10-11T02:02:30.254Z,29.33
2018-10-11T02:05:02.161Z,29.60
2018-10-11T02:07:30.235Z,29.03
2018-10-11T02:09:58.312Z,29.87
2018-10-11T02:12:26.392Z,31.10
2018-10-11T02:14:59.091Z,30.37
2018-10-11T02:17:28.006Z,31.00
2018-10-11T02:19:56.127Z,31.33
2018-10-11T02:22:24.335Z,29.47
2018-10-11T02:24:52.391Z,29.57
2018-10-11T02:27:20.444Z,30.17
2018-10-11T02:29:48.535Z,30.67
2018-10-11T02:32:16.623Z,30.80
2018-10-11T02:34:44.684Z,30.03
2018-10-11T02:37:12.739Z,31.33
2018-10-11T02:39:40.789Z,30.30
2018-10-11T02:42:08.863Z,30.43
2018-10-11T02:44:36.907Z,30.23
2018-10-11T02:47:04.950Z,30.93
2018-10-11T02:49:33.018Z,30.60
2018-10-11T02:52:01.078Z,29.97
2018-10-11T02:54:29.153Z,30.77
2018-10-11T02:57:00.425Z,29.63
2018-10-11T02:59:30.903Z,29.50
2018-10-11T03:01:59.102Z,28.57
2018-10-11T03:04:28.300Z,28.73
2018-10-11T03:06:56.395Z,28.43
2018-10-11T03:09:24.614Z,28.23
2018-10-11T03:11:52.637Z,28.83
2018-10-11T03:14:20.718Z,28.67
2018-10-11T03:16:48.781Z,27.47
2018-10-11T03:19:16.832Z,27.77
2018-10-11T03:21:44.904Z,28.30
2018-10-11T03:24:12.999Z,28.33
2018-10-11T03:26:41.138Z,29.03
2018-10-11T03:29:09.729Z,27.73
2018-10-11T03:31:37.869Z,28.47
2018-10-11T03:34:05.921Z,27.40
2018-10-11T03:36:33.994Z,29.17
2018-10-11T03:39:02.046Z,29.57
2018-10-11T03:41:30.084Z,28.33
2018-10-11T03:43:58.147Z,28.47
2018-10-11T03:46:26.209Z,27.93
2018-10-11T03:48:54.377Z,27.00
2018-10-11T03:51:22.475Z,27.23
2018-10-11T03:53:50.619Z,28.60
2018-10-11T03:56:18.646Z,27.70
2018-10-11T03:58:46.732Z,28.77
2018-10-11T04:01:14.771Z,28.70
2018-10-11T04:03:42.839Z,28.97
2018-10-11T04:06:10.860Z,28.13
2018-10-11T04:08:38.951Z,29.13
2018-10-11T04:11:06.998Z,30.00
2018-10-11T04:13:35.069Z,29.33
2018-10-11T04:16:03.133Z,30.73
2018-10-11T04:18:31.204Z,29.47
2018-10-11T04:20:59.273Z,29.63
2018-10-11T04:23:28.642Z,28.70
2018-10-11T04:25:57.061Z,29.73
2018-10-11T04:28:25.981Z,29.23
2018-10-11T04:30:54.218Z,29.60
2018-10-11T04:33:22.297Z,29.70
2018-10-11T04:35:50.416Z,29.73
2018-10-11T04:38:18.469Z,29.83
2018-10-11T04:40:46.618Z,30.47
2018-10-11T04:43:14.802Z,29.23
2018-10-11T04:45:43.763Z,28.27
2018-10-11T04:48:11.826Z,30.07
2018-10-11T04:50:41.249Z,32.20
2018-10-11T04:53:09.558Z,29.37
2018-10-11T04:55:37.586Z,29.80
2018-10-11T04:58:05.707Z,29.03
2018-10-11T05:00:33.748Z,28.93
2018-10-11T05:03:01.845Z,29.47
2018-10-11T05:05:29.870Z,28.60
2018-10-11T05:07:58.095Z,27.93
2018-10-11T05:10:26.143Z,29.87
2018-10-11T05:12:54.222Z,28.23
2018-10-11T05:15:23.313Z,28.53
2018-10-11T05:17:51.337Z,27.57
2018-10-11T05:20:19.450Z,27.77
2018-10-11T05:22:47.493Z,28.63
2018-10-11T05:25:15.558Z,28.87
2018-10-11T05:27:43.616Z,27.30
2018-10-11T05:30:11.701Z,28.20
2018-10-11T05:32:39.782Z,27.73
2018-10-11T05:35:07.937Z,28.37
2018-10-11T05:37:36.027Z,27.53
2018-10-11T05:40:04.241Z,28.17
2018-10-11T05:42:32.297Z,27.40
2018-10-11T05:45:01.171Z,28.33
2018-10-11T05:47:29.226Z,27.43
2018-10-11T05:49:57.405Z,26.03
2018-10-11T05:52:25.549Z,26.73
2018-10-11T05:54:53.644Z,26.30
2018-10-11T05:57:21.728Z,27.33
2018-10-11T05:59:49.817Z,27.37
2018-10-11T06:02:17.867Z,26.67
2018-10-11T06:04:46.057Z,25.37
2018-10-11T06:07:14.149Z,26.23
2018-10-11T06:09:42.201Z,25.30
2018-10-11T06:12:10.273Z,26.63
2018-10-11T06:14:38.398Z,25.43
2018-10-11T06:17:06.627Z,25.50
2018-10-11T06:19:35.227Z,25.70
2018-10-11T06:22:03.373Z,25.20
2018-10-11T06:24:31.561Z,25.70
2018-10-11T06:26:59.703Z,25.37
2018-10-11T06:29:27.814Z,24.83
2018-10-11T06:31:55.984Z,27.07
2018-10-11T06:34:24.237Z,26.37
2018-10-11T06:36:52.461Z,25.70
2018-10-11T06:39:20.589Z,25.33
2018-10-11T06:41:49.141Z,25.23
2018-10-11T06:44:17.207Z,23.77
2018-10-11T06:46:46.525Z,24.47
2018-10-11T06:49:14.669Z,24.73
2018-10-11T06:51:42.928Z,23.50
2018-10-11T06:54:11.157Z,23.50
2018-10-11T06:56:39.255Z,22.40
2018-10-11T06:59:07.433Z,23.10
2018-10-11T07:01:35.570Z,23.13
2018-10-11T07:04:03.955Z,22.60
2018-10-11T07:06:32.065Z,22.17
2018-10-11T07:09:00.221Z,23.13
2018-10-11T07:11:28.376Z,23.10
2018-10-11T07:13:56.528Z,23.63
2018-10-11T07:16:24.538Z,22.30
2018-10-11T07:18:52.625Z,22.13
2018-10-11T07:21:20.657Z,22.17
2018-10-11T07:23:48.931Z,21.63
2018-10-11T07:26:17.026Z,21.97
2018-10-11T07:28:45.109Z,21.43
2018-10-11T07:31:13.319Z,21.27
2018-10-11T07:33:41.398Z,21.67
2018-10-11T07:36:09.597Z,20.03
2018-10-11T07:38:37.697Z,21.43
2018-10-11T07:41:05.880Z,18.70
2018-10-11T07:43:33.924Z,21.17
2018-10-11T07:46:02.026Z,19.30
2018-10-11T07:48:30.133Z,18.90
2018-10-11T07:50:58.213Z,19.73
2018-10-11T07:53:26.250Z,19.07
2018-10-11T07:55:54.305Z,18.53
2018-10-11T07:58:22.581Z,18.20
2018-10-11T08:00:50.665Z,17.73
2018-10-11T08:03:18.888Z,18.50
2018-10-11T08:05:47.224Z,17.00
2018-10-11T08:08:15.414Z,18.33
2018-10-11T08:10:43.530Z,17.80
2018-10-11T08:13:11.729Z,16.23
2018-10-11T08:15:39.774Z,16.53
2018-10-11T08:18:07.825Z,16.97
2018-10-11T08:20:36.074Z,16.47
2018-10-11T08:23:04.095Z,16.10
2018-10-11T08:25:32.503Z,16.47
2018-10-11T08:28:00.319Z,16.27
2018-10-11T08:30:28.394Z,15.73
2018-10-11T08:32:56.518Z,15.00
2018-10-11T08:35:24.660Z,15.73
2018-10-11T08:37:52.844Z,14.87
2018-10-11T08:40:21.080Z,15.23
2018-10-11T08:42:49.354Z,14.80
2018-10-11T08:45:17.425Z,15.03
2018-10-11T08:47:45.606Z,15.47
2018-10-11T08:50:13.768Z,15.00
2018-10-11T08:52:42.290Z,15.10
2018-10-11T08:55:10.334Z,15.30
2018-10-11T08:57:38.575Z,15.50
2018-10-11T09:00:07.896Z,15.07
2018-10-11T09:02:36.138Z,15.13
2018-10-11T09:05:04.646Z,14.37
2018-10-11T09:07:32.727Z,15.70
2018-10-11T09:10:00.969Z,14.10
2018-10-11T09:12:29.070Z,14.23
2018-10-11T09:14:57.153Z,14.87
2018-10-11T09:17:25.327Z,14.23
2018-10-11T09:19:53.409Z,15.23
2018-10-11T09:22:21.516Z,14.63
2018-10-11T09:24:49.775Z,14.00
2018-10-11T09:27:17.817Z,14.10
2018-10-11T09:29:45.913Z,14.23
2018-10-11T09:32:14.045Z,14.43
2018-10-11T09:34:42.137Z,13.43
2018-10-11T09:37:10.255Z,12.80
2018-10-11T09:39:38.282Z,17.47
2018-10-11T09:42:06.781Z,13.83
2018-10-11T09:44:34.857Z,14.23
2018-10-11T09:47:02.949Z,14.30
2018-10-11T09:49:31.128Z,13.67
2018-10-11T09:51:59.254Z,13.07
2018-10-11T09:54:27.529Z,12.83
2018-10-11T09:57:29.520Z,13.47
2018-10-11T09:59:58.044Z,12.07
2018-10-11T10:02:26.725Z,12.80
2018-10-11T10:04:57.028Z,12.57
2018-10-11T10:07:25.291Z,12.13
2018-10-11T10:09:53.499Z,11.73
2018-10-11T10:12:22.876Z,12.40
2018-10-11T10:14:51.502Z,12.90
2018-10-11T10:17:19.849Z,11.47
2018-10-11T10:19:48.101Z,11.80
2018-10-11T10:22:16.149Z,12.27
2018-10-11T10:24:45.198Z,12.20
2018-10-11T10:27:13.335Z,11.77
2018-10-11T10:29:41.529Z,11.87
2018-10-11T10:32:09.697Z,12.20
2018-10-11T10:34:37.959Z,12.80
2018-10-11T10:37:06.070Z,12.23
2018-10-11T10:39:34.149Z,12.23
2018-10-11T10:42:02.285Z,12.20
2018-10-11T10:44:30.378Z,12.27
2018-10-11T10:46:58.413Z,11.67
2018-10-11T10:49:26.458Z,11.97
2018-10-11T10:51:54.562Z,11.93
2018-10-11T10:54:28.054Z,11.80
2018-10-11T10:56:56.444Z,11.77
2018-10-11T10:59:25.179Z,12.10
2018-10-11T11:01:53.673Z,12.37
2018-10-11T11:04:21.908Z,11.30
2018-10-11T11:06:50.094Z,12.07
2018-10-11T11:09:18.388Z,11.80
2018-10-11T11:11:46.554Z,12.63
2018-10-11T11:14:15.877Z,12.07
2018-10-11T11:16:44.878Z,13.10
2018-10-11T11:19:13.358Z,12.13
2018-10-11T11:21:41.666Z,12.30
2018-10-11T11:24:09.730Z,11.07
2018-10-11T11:26:37.801Z,12.00
2018-10-11T11:29:06.049Z,12.83
2018-10-11T11:31:34.128Z,11.90
2018-10-11T11:34:02.860Z,11.30
2018-10-11T11:36:31.026Z,11.87
2018-10-11T11:38:59.170Z,12.33
2018-10-11T11:41:27.753Z,11.77
2018-10-11T11:43:55.841Z,10.97
2018-10-11T11:46:24.167Z,11.93
2018-10-11T11:48:52.532Z,11.27
2018-10-11T11:51:20.578Z,11.27
2018-10-11T11:53:48.827Z,11.13
2018-10-11T11:56:17.018Z,10.80
2018-10-11T11:58:45.256Z,11.20
2018-10-11T12:01:13.426Z,10.70
2018-10-11T12:03:41.726Z,11.43
2018-10-11T12:06:10.522Z,11.40
2018-10-11T12:08:39.371Z,12.23
2018-10-11T12:11:07.939Z,11.67
2018-10-11T12:13:35.974Z,11.67
2018-10-11T12:16:04.094Z,11.20
2018-10-11T12:18:32.250Z,11.20
2018-10-11T12:21:00.315Z,11.57
2018-10-11T12:23:28.546Z,11.13
2018-10-11T12:25:56.589Z,10.67
2018-10-11T12:28:24.745Z,10.50
2018-10-11T12:30:52.763Z,11.30
2018-10-11T12:33:20.964Z,11.10
2018-10-11T12:35:49.049Z,10.63
2018-10-11T12:38:17.168Z,11.20
2018-10-11T12:40:45.452Z,10.93
2018-10-11T12:43:13.631Z,11.13
2018-10-11T12:45:42.064Z,11.33
2018-10-11T12:48:10.151Z,11.30
2018-10-11T12:50:38.345Z,11.13
2018-10-11T12:53:06.823Z,11.00
2018-10-11T12:55:35.199Z,10.97
2018-10-11T12:58:03.497Z,10.90
2018-10-11T13:00:31.835Z,10.40
2018-10-11T13:03:00.430Z,10.57
2018-10-11T13:05:28.687Z,10.80
2018-10-11T13:07:56.993Z,10.00
2018-10-11T13:10:25.373Z,10.00
2018-10-11T13:12:54.323Z,11.53
2018-10-11T13:15:22.746Z,10.90
2018-10-11T13:17:52.102Z,10.07
2018-10-11T13:20:21.154Z,10.00
2018-10-11T13:22:49.618Z,10.90
2018-10-11T13:25:18.197Z,10.40
2018-10-11T13:27:46.778Z,9.43
2018-10-11T13:30:15.066Z,10.27
2018-10-11T13:32:43.450Z,10.07
2018-10-11T13:35:12.902Z,10.27
2018-10-11T13:37:41.219Z,9.50
2018-10-11T13:40:09.513Z,10.20
2018-10-11T13:42:37.930Z,10.10
2018-10-11T13:45:06.305Z,10.00
2018-10-11T13:47:39.797Z,10.37
2018-10-11T13:50:03.004Z,10.37
2018-10-11T13:52:31.385Z,10.80
2018-10-11T13:54:59.674Z,10.20
2018-10-11T13:57:30.496Z,9.90
2018-10-11T13:59:56.454Z,9.57
2018-10-11T14:02:24.744Z,9.57
2018-10-11T14:04:53.201Z,9.90
2018-10-11T14:07:21.557Z,10.00
2018-10-11T14:09:49.848Z,9.57
2018-10-11T14:12:18.374Z,9.47
2018-10-11T14:14:46.781Z,10.00
2018-10-11T14:17:15.084Z,9.37
2018-10-11T14:19:43.514Z,10.00
2018-10-11T14:22:11.851Z,9.13
2018-10-11T14:24:40.201Z,9.30
2018-10-11T14:27:08.481Z,9.87
2018-10-11T14:29:36.802Z,9.53
2018-10-11T14:32:05.117Z,9.20
2018-10-11T14:34:33.614Z,9.47
2018-10-11T14:37:02.027Z,10.33
2018-10-11T14:39:30.209Z,9.80
2018-10-11T14:41:58.580Z,9.17
2018-10-11T14:44:26.852Z,9.70
2018-10-11T14:46:55.138Z,9.67
2018-10-11T14:49:23.458Z,10.17
2018-10-11T14:51:51.770Z,9.33
2018-10-11T14:54:20.089Z,9.03
2018-10-11T14:56:48.439Z,9.03
2018-10-11T14:59:16.744Z,9.23
2018-10-11T15:01:44.844Z,9.13
2018-10-11T15:04:12.905Z,10.33
2018-10-11T15:06:41.025Z,9.60
2018-10-11T15:09:12.088Z,10.73
2018-10-11T15:14:28.997Z,11.23
2018-10-11T15:16:57.385Z,10.33
2018-10-11T15:19:25.458Z,9.67
2018-10-11T15:21:53.541Z,10.30
2018-10-11T15:24:21.683Z,9.17
2018-10-11T15:26:49.730Z,10.30
2018-10-11T15:29:17.885Z,10.53
2018-10-11T15:31:45.868Z,9.80
2018-10-11T15:34:14.000Z,10.50
2018-10-11T15:36:42.113Z,9.93
2018-10-11T15:39:11.509Z,9.30
2018-10-11T15:41:40.003Z,9.47
2018-10-11T15:44:08.342Z,9.53
2018-10-11T15:46:36.432Z,9.77
2018-10-11T15:49:04.512Z,9.70
2018-10-11T15:51:32.629Z,10.67
2018-10-11T15:54:00.739Z,10.50
2018-10-11T15:56:28.801Z,10.13
2018-10-11T15:58:56.865Z,9.57
2018-10-11T16:01:24.919Z,9.27
2018-10-11T16:03:52.963Z,9.33
2018-10-11T16:06:21.289Z,9.70
2018-10-11T16:08:49.721Z,10.00
2018-10-11T16:11:17.851Z,10.53
2018-10-11T16:13:45.935Z,10.10
2018-10-11T16:16:14.155Z,9.80
2018-10-11T16:18:42.254Z,10.17
2018-10-11T16:21:10.330Z,10.03
2018-10-11T16:23:38.452Z,10.33
2018-10-11T16:26:06.821Z,10.43
2018-10-11T16:28:34.959Z,10.53
2018-10-11T16:31:03.098Z,9.80
2018-10-11T16:33:31.156Z,10.70
2018-10-11T16:35:59.314Z,11.37
2018-10-11T16:38:27.548Z,11.43
2018-10-11T16:40:55.708Z,11.13
2018-10-11T16:43:23.809Z,10.77
2018-10-11T16:45:52.029Z,10.73
2018-10-11T16:48:20.095Z,11.03
2018-10-11T16:50:48.169Z,11.83
2018-10-11T16:53:16.258Z,11.43
2018-10-11T16:55:46.507Z,11.87
2018-10-11T16:58:14.663Z,11.80
2018-10-11T17:00:43.002Z,10.50
2018-10-11T17:03:11.129Z,10.33
2018-10-11T17:05:39.185Z,10.70
2018-10-11T17:08:07.349Z,11.27
2018-10-11T17:10:35.423Z,12.33
2018-10-11T17:13:03.744Z,12.07
2018-10-11T17:15:35.462Z,11.73
2018-10-11T17:18:03.528Z,12.27
2018-10-11T17:20:31.588Z,11.90
2018-10-11T17:22:59.645Z,12.93
2018-10-11T17:25:27.708Z,12.87
2018-10-11T17:27:55.872Z,11.87
2018-10-11T17:30:23.922Z,12.97
2018-10-11T17:32:51.965Z,12.90
2018-10-11T17:35:20.103Z,12.43
2018-10-11T17:37:48.182Z,12.70
2018-10-11T17:40:16.243Z,12.80
2018-10-11T17:42:44.470Z,12.20
2018-10-11T17:45:12.529Z,13.73
2018-10-11T17:47:40.561Z,13.27
2018-10-11T17:50:08.654Z,11.77
2018-10-11T17:52:36.701Z,12.63
2018-10-11T17:55:04.815Z,11.90
2018-10-11T17:57:32.889Z,12.60
2018-10-11T18:00:00.985Z,12.70
2018-10-11T18:02:29.048Z,12.73
2018-10-11T18:04:57.080Z,13.33
2018-10-11T18:07:25.145Z,12.00
2018-10-11T18:09:53.226Z,12.47
2018-10-11T18:12:21.400Z,12.83
2018-10-11T18:14:49.486Z,12.23
2018-10-11T18:17:17.669Z,12.00
2018-10-11T18:19:45.795Z,12.73
2018-10-11T18:22:14.037Z,12.73
2018-10-11T18:24:42.115Z,12.40
2018-10-11T18:27:10.164Z,12.43
2018-10-11T18:29:38.249Z,12.73
2018-10-11T18:32:06.427Z,12.53
2018-10-11T18:34:34.715Z,13.33
2018-10-11T18:37:02.757Z,13.37
2018-10-11T18:39:30.920Z,12.83
2018-10-11T18:41:59.042Z,12.63
2018-10-11T18:44:27.169Z,12.77
2018-10-11T18:46:56.737Z,13.90
2018-10-11T18:49:24.791Z,12.97
2018-10-11T18:51:52.845Z,12.47
2018-10-11T18:54:20.954Z,12.87
2018-10-11T18:56:49.029Z,13.10
2018-10-11T18:59:17.198Z,13.07
2018-10-11T19:01:45.277Z,13.63
2018-10-11T19:04:13.452Z,13.00
2018-10-11T19:06:41.590Z,12.97
2018-10-11T19:09:09.964Z,13.33
2018-10-11T19:11:38.498Z,13.67
2018-10-11T19:14:06.593Z,13.10
2018-10-11T19:16:34.745Z,13.57
2018-10-11T19:19:02.793Z,12.60
2018-10-11T19:21:31.140Z,12.37
2018-10-11T19:23:59.292Z,12.73
2018-10-11T19:26:27.661Z,13.23
2018-10-11T19:28:56.505Z,12.70
2018-10-11T19:31:24.588Z,12.47
2018-10-11T19:33:52.741Z,14.83
2018-10-11T19:36:21.665Z,13.77
2018-10-11T19:38:49.857Z,12.33
2018-10-11T19:41:18.018Z,12.53
2018-10-11T19:43:46.702Z,12.43
2018-10-11T19:46:14.932Z,12.97
2018-10-11T19:48:43.009Z,12.33
2018-10-11T19:51:11.093Z,12.50
2018-10-11T19:53:40.805Z,12.23
2018-10-11T19:56:08.937Z,12.00
2018-10-11T19:58:37.158Z,12.13
2018-10-11T20:01:05.216Z,12.03
2018-10-11T20:03:33.265Z,12.20
2018-10-11T20:06:01.382Z,12.37
2018-10-11T20:08:29.510Z,12.40
2018-10-11T20:10:57.611Z,12.33
2018-10-11T20:13:25.801Z,12.03
2018-10-11T20:15:53.880Z,12.23
2018-10-11T20:18:21.981Z,11.90
2018-10-11T20:20:50.042Z,12.27
2018-10-11T20:23:18.152Z,12.27
2018-10-11T20:25:46.296Z,11.83
2018-10-11T20:28:14.416Z,12.20
2018-10-11T20:30:42.459Z,11.77
2018-10-11T20:33:10.543Z,12.00
2018-10-11T20:35:38.816Z,11.60
2018-10-11T20:38:06.922Z,11.53
2018-10-11T20:40:34.993Z,11.67
2018-10-11T20:43:03.194Z,12.07
2018-10-11T20:45:31.465Z,11.87
2018-10-11T20:47:59.520Z,11.60
2018-10-11T20:50:28.113Z,12.57
2018-10-11T20:52:56.639Z,12.37
2018-10-11T20:55:24.869Z,11.97
2018-10-11T20:57:55.190Z,11.90
2018-10-11T21:00:23.245Z,11.90
2018-10-11T21:02:51.346Z,11.50
2018-10-11T21:05:19.430Z,11.80
2018-10-11T21:07:47.593Z,11.80
2018-10-11T21:10:15.661Z,12.83
2018-10-11T21:12:43.721Z,11.70
2018-10-11T21:15:12.168Z,12.03
2018-10-11T21:17:40.240Z,11.43
2018-10-11T21:20:08.342Z,11.67
2018-10-11T21:22:36.578Z,11.20
2018-10-11T21:25:04.613Z,11.30
2018-10-11T21:27:32.665Z,11.70
2018-10-11T21:30:00.714Z,11.43
2018-10-11T21:32:28.774Z,11.70
2018-10-11T21:34:56.823Z,11.93
2018-10-11T21:37:24.917Z,11.57
2018-10-11T21:39:53.008Z,10.53
2018-10-11T21:42:21.539Z,10.90
2018-10-11T21:44:49.576Z,10.97
2018-10-11T21:47:17.665Z,11.70
2018-10-11T21:49:45.717Z,11.07
2018-10-11T21:52:13.752Z,11.83
2018-10-11T21:54:42.405Z,10.77
2018-10-11T21:57:10.556Z,10.67
2018-10-11T21:59:38.653Z,11.67
2018-10-11T22:02:06.689Z,11.87
2018-10-11T22:04:34.896Z,10.70
2018-10-11T22:07:02.958Z,11.03
2018-10-11T22:09:31.029Z,10.90
2018-10-11T22:11:59.118Z,10.67
2018-10-11T22:14:27.220Z,10.60
2018-10-11T22:16:55.959Z,11.27
2018-10-11T22:19:24.351Z,10.50
2018-10-11T22:21:52.542Z,11.30
2018-10-11T22:24:20.588Z,10.87
2018-10-11T22:26:48.687Z,10.90
2018-10-11T22:29:16.756Z,10.80
2018-10-11T22:31:44.830Z,10.60
2018-10-11T22:34:12.873Z,10.90
2018-10-11T22:36:41.005Z,11.13
2018-10-11T22:39:09.826Z,11.60
2018-10-11T22:41:37.910Z,11.20
2018-10-11T22:44:05.955Z,10.73
2018-10-11T22:46:33.984Z,10.23
2018-10-11T22:49:02.074Z,10.53
2018-10-11T22:51:30.194Z,11.20
2018-10-11T22:53:58.277Z,10.47
2018-10-11T22:56:26.333Z,10.93
2018-10-11T22:58:54.409Z,10.03
2018-10-11T23:01:22.689Z,10.47
2018-10-11T23:03:50.786Z,11.13
2018-10-11T23:06:18.859Z,10.50
2018-10-11T23:08:46.909Z,11.60
2018-10-11T23:11:14.978Z,10.57
2018-10-11T23:13:43.043Z,10.60
2018-10-11T23:16:11.423Z,10.83
2018-10-11T23:18:40.381Z,11.27
2018-10-11T23:21:08.477Z,10.67
2018-10-11T23:23:36.515Z,10.87
2018-10-11T23:26:04.581Z,10.70
2018-10-11T23:28:32.679Z,11.27
2018-10-11T23:31:00.732Z,10.77
2018-10-11T23:33:28.784Z,11.13
2018-10-11T23:35:56.831Z,11.07
2018-10-11T23:38:24.852Z,10.87
2018-10-11T23:40:52.938Z,11.33
2018-10-11T23:43:21.064Z,11.20
2018-10-11T23:45:49.122Z,11.27
2018-10-11T23:48:17.213Z,10.60
2018-10-11T23:50:45.285Z,10.70
2018-10-11T23:53:13.397Z,11.10
2018-10-11T23:55:41.445Z,11.13
2018-10-11T23:58:09.548Z,11.50
